Time;durP1;ratioP1;P1;durP2;ratioP2;P2;SDS_P1;SDS_P2;PMS_P1;PMS_P2;Temp;Humidity;BMP_temperature;BMP_pressure;BME280_temperature;BME280_humidity;BME280_pressure;Samples;Min_cycle;Max_cycle;Signal;HPM_P1;HPM_P2
2022/05/16 00:01:21;;;;;;;5.00;2.58;;;18.10;99.90;;;;;;6698839;88;20762;-78
2022/05/16 00:11:22;;;;;;;5.03;2.70;;;18.00;99.90;;;;;;6694123;88;20198;-78
2022/05/16 00:21:22;;;;;;;5.62;2.78;;;17.80;99.90;;;;;;6691839;88;20215;-78
2022/05/16 00:31:23;;;;;;;6.27;2.73;;;17.60;99.90;;;;;;6694723;88;20932;-79
2022/05/16 00:41:23;;;;;;;3.60;2.40;;;17.50;99.90;;;;;;6700437;88;20192;-79
2022/05/16 00:51:29;;;;;;;6.60;2.75;;;17.20;99.90;;;;;;6690309;88;20248;-78
2022/05/16 01:11:50;;;;;;;4.72;2.95;;;17.10;99.90;;;;;;6664903;88;20681;-79
2022/05/16 01:21:50;;;;;;;5.95;2.75;;;17.10;99.90;;;;;;6677981;88;20253;-79
2022/05/16 01:31:51;;;;;;;5.80;2.85;;;17.10;99.90;;;;;;6691498;88;20226;-78
2022/05/16 01:41:51;;;;;;;7.55;2.95;;;17.10;99.90;;;;;;6690789;88;20254;-79
2022/05/16 01:51:52;;;;;;;4.78;2.90;;;17.10;99.90;;;;;;6689515;89;20198;-79
2022/05/16 02:01:52;;;;;;;7.47;3.05;;;17.30;99.90;;;;;;6702767;88;20202;-79
2022/05/16 02:11:53;;;;;;;5.65;2.80;;;17.00;99.90;;;;;;6696827;88;20203;-79
2022/05/16 02:32:13;;;;;;;4.55;2.40;;;16.90;99.90;;;;;;6680156;89;20195;-78
2022/05/16 02:42:14;;;;;;;5.28;2.65;;;16.90;99.90;;;;;;6693993;88;20641;-78
2022/05/16 02:52:15;;;;;;;6.55;3.15;;;16.80;99.90;;;;;;6692324;88;20537;-78
2022/05/16 03:02:16;;;;;;;6.22;2.75;;;16.80;99.90;;;;;;6691061;88;20320;-78
2022/05/16 03:12:17;;;;;;;6.23;2.93;;;16.60;99.90;;;;;;6706250;88;20202;-78
2022/05/16 03:22:17;;;;;;;6.45;2.95;;;16.60;99.90;;;;;;6707519;88;20299;-78
2022/05/16 03:32:18;;;;;;;5.32;3.30;;;16.60;99.90;;;;;;6698053;88;20187;-78
2022/05/16 03:42:19;;;;;;;5.93;2.92;;;16.50;99.90;;;;;;6692036;88;20208;-79
2022/05/16 03:52:19;;;;;;;7.00;3.03;;;16.40;99.90;;;;;;6655057;88;20174;-79
2022/05/16 04:02:20;;;;;;;6.22;3.05;;;16.30;99.90;;;;;;6692995;88;20188;-78
2022/05/16 04:12:20;;;;;;;7.45;3.00;;;16.50;99.90;;;;;;6691233;88;20219;-79
2022/05/16 04:22:21;;;;;;;8.95;3.10;;;16.60;99.90;;;;;;6689661;88;20255;-78
2022/05/16 04:32:22;;;;;;;6.78;2.95;;;16.80;99.90;;;;;;6608445;88;20262;-79
2022/05/16 04:42:41;;;;;;;6.15;2.70;;;16.90;99.90;;;;;;6692539;88;20192;-78
2022/05/16 04:52:41;;;;;;;5.12;2.80;;;17.20;99.90;;;;;;6700171;88;20757;-79
2022/05/16 05:02:43;;;;;;;5.80;3.05;;;17.20;99.90;;;;;;6704867;88;20318;-78
2022/05/16 05:23:05;;;;;;;9.00;2.87;;;17.80;99.90;;;;;;6690077;88;20280;-78
2022/05/16 05:33:05;;;;;;;7.37;3.33;;;17.80;99.90;;;;;;6689447;88;20210;-78
2022/05/16 05:43:07;;;;;;;5.55;3.00;;;17.60;99.90;;;;;;6677942;89;20191;-78
2022/05/16 05:53:08;;;;;;;5.65;3.28;;;17.20;99.90;;;;;;6685590;88;20199;-78
2022/05/16 06:03:08;;;;;;;8.23;2.78;;;17.50;99.90;;;;;;6662980;89;20683;-78
2022/05/16 06:13:09;;;;;;;7.85;2.90;;;17.70;99.90;;;;;;6692034;88;20255;-79
2022/05/16 06:23:10;;;;;;;5.25;2.78;;;17.10;99.90;;;;;;6693910;88;20177;-78
2022/05/16 06:33:11;;;;;;;6.37;2.90;;;17.00;99.90;;;;;;6691857;88;20697;-78
2022/05/16 06:43:14;;;;;;;8.13;3.30;;;16.80;99.90;;;;;;6686087;88;20217;-78
2022/05/16 06:53:22;;;;;;;6.22;3.12;;;16.90;99.90;;;;;;6688492;88;20199;-77
2022/05/16 07:03:23;;;;;;;7.93;3.20;;;17.10;99.90;;;;;;6697931;88;20195;-78
2022/05/16 07:13:25;;;;;;;13.07;3.97;;;17.40;99.90;;;;;;6684084;88;20359;-78
2022/05/16 07:23:26;;;;;;;7.82;2.87;;;17.70;99.90;;;;;;6671676;89;20248;-79
2022/05/16 07:33:27;;;;;;;5.95;2.80;;;18.10;99.90;;;;;;6673630;89;20703;-78
2022/05/16 07:43:28;;;;;;;6.72;3.00;;;18.30;99.90;;;;;;6681404;88;20265;-77
2022/05/16 07:53:29;;;;;;;5.90;2.67;;;18.60;99.90;;;;;;6689663;88;20182;-78
2022/05/16 08:03:30;;;;;;;8.10;2.40;;;19.10;99.90;;;;;;6689435;88;20267;-77
2022/05/16 08:13:32;;;;;;;10.15;3.55;;;19.40;99.90;;;;;;6689871;88;20215;-78
2022/05/16 08:23:33;;;;;;;8.80;2.53;;;19.90;99.90;;;;;;6690459;88;20206;-79
2022/05/16 08:33:36;;;;;;;6.65;2.70;;;21.00;99.90;;;;;;6691392;88;20214;-79
2022/05/16 08:43:43;;;;;;;9.45;2.65;;;22.60;99.90;;;;;;6690197;88;20205;-78
2022/05/16 08:53:43;;;;;;;8.93;2.75;;;24.20;99.90;;;;;;6693381;88;20216;-80
2022/05/16 09:03:58;;;;;;;8.38;2.50;;;24.70;99.90;;;;;;6691510;88;20205;-79
2022/05/16 09:14:06;;;;;;;7.82;2.65;;;26.00;98.20;;;;;;6689689;88;20286;-79
2022/05/16 09:24:20;;;;;;;5.72;2.30;;;27.40;96.60;;;;;;6689540;88;20634;-79
2022/05/16 09:34:20;;;;;;;7.45;2.78;;;29.00;94.10;;;;;;6690524;88;20617;-79
2022/05/16 09:44:21;;;;;;;8.25;2.80;;;29.70;93.10;;;;;;6690389;88;20190;-77
2022/05/16 09:54:28;;;;;;;7.43;2.75;;;30.10;92.30;;;;;;6690887;89;20663;-79
2022/05/16 10:04:39;;;;;;;5.22;2.30;;;31.40;91.20;;;;;;6690596;89;20182;-79
2022/05/16 10:14:41;;;;;;;8.17;2.47;;;32.10;89.30;;;;;;6693495;88;20589;-79
2022/05/16 10:24:53;;;;;;;4.78;2.42;;;32.80;85.50;;;;;;6691119;89;20241;-79
2022/05/16 10:34:58;;;;;;;4.87;1.67;;;33.70;82.60;;;;;;6691831;89;20180;-79
2022/05/16 10:45:05;;;;;;;4.32;1.60;;;32.60;78.60;;;;;;6629182;89;20710;-79
2022/05/16 10:55:06;;;;;;;6.35;1.90;;;31.70;78.40;;;;;;6659447;88;20688;-79
2022/05/16 11:05:34;;;;;;;2.67;1.50;;;31.90;77.60;;;;;;6691357;88;20195;-79
2022/05/16 11:15:50;;;;;;;4.97;1.77;;;31.40;77.70;;;;;;6692440;88;20198;-80
2022/05/16 11:26:08;;;;;;;3.78;1.60;;;32.10;77.10;;;;;;6605198;89;20216;-78
2022/05/16 11:36:36;;;;;;;7.75;2.00;;;31.00;76.80;;;;;;6604122;89;20190;-79
2022/05/16 11:46:50;;;;;;;5.57;2.10;;;27.80;89.80;;;;;;6606853;89;20247;-79
2022/05/16 12:07:16;;;;;;;6.03;3.12;;;23.00;99.90;;;;;;6689130;88;20183;-79
2022/05/16 12:27:41;;;;;;;9.20;3.25;;;21.20;99.90;;;;;;6693946;88;20225;-80
2022/05/16 12:37:42;;;;;;;6.82;3.00;;;20.80;99.90;;;;;;6692528;88;20674;-80
2022/05/16 12:48:09;;;;;;;7.15;2.40;;;20.30;99.90;;;;;;6673513;88;20198;-78
2022/05/16 12:58:35;;;;;;;9.93;4.10;;;19.20;99.90;;;;;;6682765;88;20221;-78
2022/05/16 13:08:47;;;;;;;15.48;5.37;;;18.30;99.90;;;;;;6702487;88;20190;-78
2022/05/16 13:18:54;;;;;;;10.68;5.00;;;18.20;99.90;;;;;;6688555;88;20322;-79
2022/05/16 13:39:15;;;;;;;16.42;8.80;;;18.30;99.90;;;;;;6606799;89;20224;-79
2022/05/16 13:49:16;;;;;;;13.05;6.28;;;18.90;99.90;;;;;;6621756;89;20194;-79
2022/05/16 13:59:28;;;;;;;10.57;5.33;;;19.40;99.90;;;;;;6619148;89;20569;-79
2022/05/16 14:10:00;;;;;;;11.38;5.93;;;19.30;99.90;;;;;;6619522;89;20564;-79
2022/05/16 14:20:18;;;;;;;10.73;5.00;;;19.60;99.90;;;;;;6612962;89;20313;-79
2022/05/16 14:30:24;;;;;;;9.13;4.55;;;19.70;99.90;;;;;;6617435;89;20167;-80
2022/05/16 14:40:36;;;;;;;11.52;5.05;;;20.50;99.90;;;;;;6622574;88;20288;-80
2022/05/16 14:50:36;;;;;;;8.35;4.57;;;20.90;99.90;;;;;;6624241;89;20301;-81
2022/05/16 15:10:58;;;;;;;6.93;3.70;;;21.20;99.90;;;;;;6625044;89;20597;-81
2022/05/16 15:20:59;;;;;;;8.57;3.87;;;21.70;99.90;;;;;;6625511;89;20194;-80
2022/05/16 15:31:02;;;;;;;6.80;4.28;;;21.70;99.90;;;;;;6625072;89;20199;-80
2022/05/16 15:41:02;;;;;;;9.82;5.65;;;21.70;99.90;;;;;;6628838;88;20222;-81
2022/05/16 15:51:03;;;;;;;11.23;5.32;;;21.40;99.90;;;;;;6625078;89;20190;-79
2022/05/16 16:01:03;;;;;;;14.98;8.48;;;21.00;99.90;;;;;;6632958;88;20205;-79
2022/05/16 16:11:04;;;;;;;10.32;5.60;;;20.80;99.90;;;;;;6631656;89;20315;-79
2022/05/16 16:21:04;;;;;;;9.30;6.03;;;20.60;99.90;;;;;;6625359;89;20294;-79
2022/05/16 16:31:06;;;;;;;9.50;6.20;;;20.40;99.90;;;;;;6625722;89;20277;-78
2022/05/16 16:41:07;;;;;;;11.57;6.70;;;19.80;99.90;;;;;;6629186;88;20186;-79
2022/05/16 16:57:27;;;;;;;12.00;6.93;;;19.70;99.90;;;;;;6623761;89;20669;-77
2022/05/16 17:01:36;;;;;;;11.48;6.68;;;19.40;99.90;;;;;;6618009;88;20193;-79
2022/05/16 17:11:37;;;;;;;12.50;6.55;;;19.60;99.90;;;;;;6627118;88;20219;-77
2022/05/16 17:21:38;;;;;;;8.55;5.85;;;19.80;99.90;;;;;;6616381;89;20733;-78
2022/05/16 17:31:42;;;;;;;10.50;5.35;;;20.10;99.90;;;;;;6615582;89;20654;-79
2022/05/16 17:41:45;;;;;;;9.70;4.47;;;20.40;99.90;;;;;;6614297;89;20332;-80
2022/05/16 17:51:51;;;;;;;7.07;4.40;;;21.00;99.90;;;;;;6618387;89;20316;-80
2022/05/16 18:01:53;;;;;;;9.00;3.90;;;22.80;99.90;;;;;;6617862;89;20724;-80
2022/05/16 18:22:20;;;;;;;10.15;4.97;;;24.30;99.90;;;;;;6660667;77;20196;-77
2022/05/16 18:32:22;;;;;;;10.38;4.35;;;22.60;99.90;;;;;;6734422;88;20192;-78
2022/05/16 18:52:44;;;;;;;9.35;5.22;;;21.10;99.90;;;;;;6736511;88;20617;-76
2022/05/16 19:02:44;;;;;;;9.60;5.35;;;20.30;99.90;;;;;;6737635;88;20185;-77
2022/05/16 19:12:46;;;;;;;7.15;4.65;;;19.80;99.90;;;;;;6737962;88;20387;-76
2022/05/16 19:22:47;;;;;;;10.40;5.28;;;19.30;99.90;;;;;;6738412;88;20604;-78
2022/05/16 19:32:47;;;;;;;11.38;5.10;;;18.80;99.90;;;;;;6734024;88;20177;-78
2022/05/16 19:42:48;;;;;;;14.85;5.75;;;18.70;99.90;;;;;;6744011;88;20206;-78
2022/05/16 19:52:48;;;;;;;9.77;5.62;;;18.50;99.90;;;;;;6734769;88;20313;-78
2022/05/16 20:02:49;;;;;;;12.13;6.18;;;18.30;99.90;;;;;;6740724;88;20255;-77
2022/05/16 20:12:52;;;;;;;11.33;6.20;;;18.00;99.90;;;;;;6740266;88;20206;-79
2022/05/16 20:34:22;;;;;;;13.18;7.75;;;17.80;99.90;;;;;;6733833;77;20197;-80
2022/05/16 20:44:37;;;;;;;12.02;7.62;;;17.40;99.90;;;;;;6701153;88;20201;-80
2022/05/16 20:54:37;;;;;;;11.50;7.53;;;17.20;99.90;;;;;;6713304;88;20206;-81
2022/05/16 21:04:38;;;;;;;13.82;8.10;;;17.20;99.90;;;;;;6732191;88;20325;-79
2022/05/16 21:14:39;;;;;;;13.00;8.57;;;17.00;99.90;;;;;;6728798;88;20237;-80
2022/05/16 21:24:39;;;;;;;13.02;9.05;;;16.80;99.90;;;;;;6727601;88;20532;-78
2022/05/16 21:34:43;;;;;;;12.63;9.02;;;16.60;99.90;;;;;;6718314;88;20185;-82
2022/05/16 21:55:03;;;;;;;12.40;9.60;;;16.40;99.90;;;;;;6732835;88;20276;-79
2022/05/16 22:05:04;;;;;;;12.50;9.73;;;16.30;99.90;;;;;;6729372;88;20177;-79
2022/05/16 22:15:05;;;;;;;13.48;9.52;;;16.50;99.90;;;;;;6726826;88;20323;-80
2022/05/16 22:25:07;;;;;;;14.35;9.57;;;16.50;99.90;;;;;;6727271;88;20184;-79
2022/05/16 22:35:11;;;;;;;14.52;9.68;;;16.40;99.90;;;;;;6724120;88;20212;-80
2022/05/16 22:45:14;;;;;;;17.80;10.70;;;16.30;99.90;;;;;;6724414;88;20178;-81
2022/05/16 22:55:15;;;;;;;14.87;10.68;;;16.00;99.90;;;;;;6725920;88;20185;-80
2022/05/16 23:05:16;;;;;;;18.47;10.80;;;16.00;99.90;;;;;;6731046;88;20242;-80
2022/05/16 23:15:17;;;;;;;20.83;10.77;;;15.90;99.90;;;;;;6728202;88;20521;-80
2022/05/16 23:25:20;;;;;;;17.40;11.27;;;15.80;99.90;;;;;;6715488;88;21034;-79
2022/05/16 23:35:23;;;;;;;18.25;11.57;;;15.80;99.90;;;;;;6711626;88;20563;-80
2022/05/16 23:45:24;;;;;;;21.20;11.40;;;15.70;99.90;;;;;;6712731;88;20195;-80
2022/05/16 23:55:25;;;;;;;18.33;10.70;;;15.60;99.90;;;;;;6713163;88;20794;-80
